This demonstration page uses our WeatherBlox Daily Observations layout. Learn more.

39.29038, -76.61219

Hourly Observations for July 17, 2015

Temp ( °F °C ) Dew Point ( °F °C ) Humidity (%) Winds ( mph kmh ) Pressure ( in mb ) Visibility ( mi km ) Precip ( " mm )
12:54 am 00:54 undefined 73 23 59 15 61 61 undefined N/A 30.06 1018 N/A 0 0
1:54 am 01:54 Cloudy 73 23 63 17 69 69 undefined N/A 30.06 1018 N/A 0 0
2:54 am 02:54 Cloudy 72 22 64 18 78 78 undefined N/A 30.09 1019 N/A 0 0
3:54 am 03:54 Mostly Clear 72 22 64 18 78 78 undefined N/A 30.09 1019 N/A 0 0
4:54 am 04:54 Mostly Cloudy 70 21 64 18 83 83 undefined N/A 30.09 1019 N/A 0 0
5:54 am 05:54 Mostly Sunny 70 21 64 18 83 83 undefined N/A 30.09 1019 N/A 0 0
6:54 am 06:54 Sunny 72 22 64 18 78 78 undefined N/A 30.09 1019 N/A 0 0
7:54 am 07:54 Cloudy 73 23 66 19 78 78 undefined N/A 30.09 1019 N/A 0 0
8:54 am 08:54 Mostly Sunny 75 24 64 18 69 69 undefined N/A 30.09 1019 N/A 0 0
9:54 am 09:54 Mostly Cloudy 77 25 64 18 65 65 undefined N/A 30.09 1019 N/A 0 0
10:54 am 10:54 undefined 81 27 63 17 54 54 undefined N/A 30.09 1019 N/A 0 0
11:54 am 11:54 Mostly Cloudy 79 26 63 17 58 58 undefined N/A 30.09 1019 N/A 0 0
12:54 pm 12:54 Mostly Cloudy 79 26 63 17 58 58 undefined N/A 30.09 1019 N/A 0 0
1:54 pm 13:54 undefined 81 27 63 17 54 54 undefined N/A 30.06 1018 N/A 0 0
2:54 pm 14:54 Mostly Sunny 81 27 64 18 58 58 undefined N/A 30.06 1018 N/A 0 0
3:54 pm 15:54 undefined 81 27 64 18 58 58 undefined N/A 30.03 1017 N/A 0 0
4:54 pm 16:54 undefined 81 27 64 18 58 58 undefined N/A 30.03 1017 N/A 0 0
5:54 pm 17:54 Partly Cloudy 81 27 64 18 58 58 undefined N/A 30 1016 N/A 0 0
6:54 pm 18:54 undefined 81 27 66 19 62 62 undefined N/A 30 1016 N/A 0 0
7:54 pm 19:54 undefined 81 27 66 19 62 62 undefined N/A 29.97 1015 N/A 0 0
8:54 pm 20:54 undefined 79 26 66 19 65 65 undefined N/A 30 1016 N/A 0 0
9:54 pm 21:54 Mostly Cloudy 79 26 68 20 70 70 undefined N/A 30 1016 N/A 0 0
10:54 pm 22:54 undefined 79 26 70 21 74 74 undefined N/A 30 1016 N/A 0 0
11:54 pm 23:54 Mostly Clear 79 26 70 21 74 74 undefined N/A 30 1016 N/A 0 0

Powered by AerisWeather